Terminal Aerodrome Forecast
Issued by NWS Portland, OR

Current Version | Previous Version | Text Only | Print | Product List | Glossary On
Versions: 1 2 3 4 5 6 7 8 9 10 11 12 13 14 15 16 17 18 19 20 21 22 23 24 25 26 27 28 29 30 31 32 33 34 35 36 37
000
FTUS46 KPQR 051459 AAA
TAFSLE
TAF AMD
KSLE 051459Z 0515/0612 VRB03KT P6SM SCT040 BKN070
     FM051700 25005KT P6SM FEW025 SCT030
     FM052200 29007KT P6SM FEW030
     FM060300 19004KT P6SM BKN120=

USA.gov is the U.S. government's official web portal to all federal, state and local government web resources and services.